Eltham, United Kingdom
Current Conditions -  °F | °C
As of 10:50 PM on Wednesday 26 Nov 2014 (Local Time) from EGLC Reporting Station
Light Rain Light Rain  
Wind Chill: 10°   Ceiling: 100
Heat Index: 10°   Visibility: 1.1mi
Dew Point:   Wind: 6mph
Humidity: 94%   Direction: 80°E
Pressure: 29.74"   Gusts: NA
Location:  51.45°N, 0.06°E
Report Text: EGLC 262250Z AUTO 08005KT 1900 -RA OVC001/// 10/09 Q1007
Loading
Personal Weather Stations






























Interactive Weather Map New forecast layout! Learn more

10-Day Weather Forecast

Advertisements
Track Severe Weather on mobile